Terminal Aerodrome Forecast
Issued by NWS Tampa Bay Area, FL

Home | Current Version | Previous Version | Text Only | Print | Product List | Glossary On
Versions: 1 2 3 4 5 6 7 8 9 10 11 12 13 14 15 16 17 18 19 20 21 22 23 24 25 26 27 28 29 30 31 32 33 34 35 36 37 38 39 40
000
FTUS42 KTBW 271501 CCB
TAFTPA
TAF COR
KTPA 271501Z 2715/2812 25012KT P6SM BKN120
     FM271800 25015G22KT P6SM SCT025 BKN090
      TEMPO 2718/2721 4SM TSRA BKN025CB
     FM272100 28015G22KT P6SM VCSH SCT025 BKN090
     FM280300 31012KT P6SM BKN250
     FM280800 35011KT P6SM SKC=

USA.gov is the U.S. government's official web portal to all federal, state and local government web resources and services.